Terminal Aerodrome Forecast
Issued by NWS

Home | Current Version | Previous Version | Text Only | Print | Product List | Glossary On
Versions: 1 2 3 4 5 6 7 8 9 10 11 12 13 14 15 16 17 18 19 20 21 22 23
000
FTAK31 PANC 042340
TAFAEN
TAF
PAEN 042340Z 0500/0524 24010KT P6SM FEW050
     FM050200 22015KT P6SM FEW050 SCT200
     FM050900 21009KT P6SM SCT040 BKN120
     FM051200 VRB05KT P6SM SCT040
     FM052100 22012KT P6SM FEW050 SCT200=

USA.gov is the U.S. government's official web portal to all federal, state and local government web resources and services.